sensor_id;sensor_type;location;lat;lon;timestamp;temperature;humidity
5192;DHT22;2615;44.524;11.284;2023-05-14T00:02:00;16.40;84.50
5192;DHT22;2615;44.524;11.284;2023-05-14T00:04:28;16.40;84.60
5192;DHT22;2615;44.524;11.284;2023-05-14T00:06:56;16.40;84.70
5192;DHT22;2615;44.524;11.284;2023-05-14T00:09:24;16.40;84.70
5192;DHT22;2615;44.524;11.284;2023-05-14T00:11:53;16.30;84.70
5192;DHT22;2615;44.524;11.284;2023-05-14T00:14:22;16.30;84.80
5192;DHT22;2615;44.524;11.284;2023-05-14T00:16:50;16.30;84.90
5192;DHT22;2615;44.524;11.284;2023-05-14T00:19:18;16.30;84.90
5192;DHT22;2615;44.524;11.284;2023-05-14T00:21:46;16.30;85.00
5192;DHT22;2615;44.524;11.284;2023-05-14T00:24:15;16.30;85.00
5192;DHT22;2615;44.524;11.284;2023-05-14T00:26:43;16.30;85.10
5192;DHT22;2615;44.524;11.284;2023-05-14T00:29:12;16.30;85.10
5192;DHT22;2615;44.524;11.284;2023-05-14T00:31:40;16.30;85.30
5192;DHT22;2615;44.524;11.284;2023-05-14T00:34:09;16.30;85.30
5192;DHT22;2615;44.524;11.284;2023-05-14T00:36:37;16.20;85.30
5192;DHT22;2615;44.524;11.284;2023-05-14T00:39:05;16.20;85.30
5192;DHT22;2615;44.524;11.284;2023-05-14T00:41:33;16.20;85.40
5192;DHT22;2615;44.524;11.284;2023-05-14T00:44:01;16.20;85.50
5192;DHT22;2615;44.524;11.284;2023-05-14T00:46:31;16.20;85.60
5192;DHT22;2615;44.524;11.284;2023-05-14T00:48:59;16.20;85.70
5192;DHT22;2615;44.524;11.284;2023-05-14T00:51:27;16.20;85.70
5192;DHT22;2615;44.524;11.284;2023-05-14T00:53:55;16.20;85.70
5192;DHT22;2615;44.524;11.284;2023-05-14T00:56:23;16.20;85.80
5192;DHT22;2615;44.524;11.284;2023-05-14T00:58:52;16.20;86.00
5192;DHT22;2615;44.524;11.284;2023-05-14T01:01:20;16.20;86.00
5192;DHT22;2615;44.524;11.284;2023-05-14T01:03:50;16.20;86.00
5192;DHT22;2615;44.524;11.284;2023-05-14T01:06:26;16.20;86.00
5192;DHT22;2615;44.524;11.284;2023-05-14T01:09:04;16.10;86.00
5192;DHT22;2615;44.524;11.284;2023-05-14T01:11:39;16.10;86.10
5192;DHT22;2615;44.524;11.284;2023-05-14T01:14:13;16.10;86.10
5192;DHT22;2615;44.524;11.284;2023-05-14T01:16:44;16.10;86.10
5192;DHT22;2615;44.524;11.284;2023-05-14T01:19:21;16.00;86.00
5192;DHT22;2615;44.524;11.284;2023-05-14T01:21:50;16.00;86.10
5192;DHT22;2615;44.524;11.284;2023-05-14T01:24:18;16.00;86.20
5192;DHT22;2615;44.524;11.284;2023-05-14T01:26:46;16.00;86.20
5192;DHT22;2615;44.524;11.284;2023-05-14T01:29:20;16.00;86.20
5192;DHT22;2615;44.524;11.284;2023-05-14T01:31:50;16.00;86.30
5192;DHT22;2615;44.524;11.284;2023-05-14T01:34:23;15.90;86.20
5192;DHT22;2615;44.524;11.284;2023-05-14T01:36:53;15.90;86.20
5192;DHT22;2615;44.524;11.284;2023-05-14T01:39:23;15.90;86.30
5192;DHT22;2615;44.524;11.284;2023-05-14T01:41:52;15.90;86.30
5192;DHT22;2615;44.524;11.284;2023-05-14T01:44:21;15.90;86.40
5192;DHT22;2615;44.524;11.284;2023-05-14T01:46:49;15.90;86.40
5192;DHT22;2615;44.524;11.284;2023-05-14T01:49:17;15.80;86.40
5192;DHT22;2615;44.524;11.284;2023-05-14T01:51:45;15.80;86.40
5192;DHT22;2615;44.524;11.284;2023-05-14T01:54:15;15.80;86.40
5192;DHT22;2615;44.524;11.284;2023-05-14T01:56:43;15.80;86.40
5192;DHT22;2615;44.524;11.284;2023-05-14T01:59:11;15.70;87.10
5192;DHT22;2615;44.524;11.284;2023-05-14T02:01:39;15.70;86.40
5192;DHT22;2615;44.524;11.284;2023-05-14T02:04:07;15.70;86.40
5192;DHT22;2615;44.524;11.284;2023-05-14T02:06:35;15.70;86.50
5192;DHT22;2615;44.524;11.284;2023-05-14T02:09:04;15.60;86.50
5192;DHT22;2615;44.524;11.284;2023-05-14T02:11:34;15.60;86.50
5192;DHT22;2615;44.524;11.284;2023-05-14T02:14:02;15.60;86.60
5192;DHT22;2615;44.524;11.284;2023-05-14T02:16:30;15.60;86.60
5192;DHT22;2615;44.524;11.284;2023-05-14T02:18:58;15.60;86.60
5192;DHT22;2615;44.524;11.284;2023-05-14T02:21:26;15.50;86.50
5192;DHT22;2615;44.524;11.284;2023-05-14T02:23:54;15.50;86.40
5192;DHT22;2615;44.524;11.284;2023-05-14T02:26:23;15.50;86.40
5192;DHT22;2615;44.524;11.284;2023-05-14T02:28:52;15.40;86.40
5192;DHT22;2615;44.524;11.284;2023-05-14T02:31:20;15.40;86.40
5192;DHT22;2615;44.524;11.284;2023-05-14T02:33:49;15.40;86.50
5192;DHT22;2615;44.524;11.284;2023-05-14T02:36:17;15.40;86.50
5192;DHT22;2615;44.524;11.284;2023-05-14T02:38:45;15.30;86.50
5192;DHT22;2615;44.524;11.284;2023-05-14T02:41:13;15.30;86.60
5192;DHT22;2615;44.524;11.284;2023-05-14T02:43:41;15.30;86.60
5192;DHT22;2615;44.524;11.284;2023-05-14T02:46:11;15.20;86.60
5192;DHT22;2615;44.524;11.284;2023-05-14T02:48:39;15.20;86.70
5192;DHT22;2615;44.524;11.284;2023-05-14T02:51:07;15.20;86.80
5192;DHT22;2615;44.524;11.284;2023-05-14T02:53:35;15.20;86.90
5192;DHT22;2615;44.524;11.284;2023-05-14T02:56:04;15.20;87.00
5192;DHT22;2615;44.524;11.284;2023-05-14T02:58:32;15.20;87.00
5192;DHT22;2615;44.524;11.284;2023-05-14T03:01:00;15.20;86.90
5192;DHT22;2615;44.524;11.284;2023-05-14T03:03:30;15.20;86.90
5192;DHT22;2615;44.524;11.284;2023-05-14T03:05:59;15.20;86.90
5192;DHT22;2615;44.524;11.284;2023-05-14T03:08:27;15.20;86.90
5192;DHT22;2615;44.524;11.284;2023-05-14T03:10:55;15.20;87.60
5192;DHT22;2615;44.524;11.284;2023-05-14T03:13:23;15.20;87.00
5192;DHT22;2615;44.524;11.284;2023-05-14T03:15:51;15.20;86.90
5192;DHT22;2615;44.524;11.284;2023-05-14T03:18:20;15.20;87.00
5192;DHT22;2615;44.524;11.284;2023-05-14T03:20:50;15.20;87.10
5192;DHT22;2615;44.524;11.284;2023-05-14T03:23:18;15.20;87.10
5192;DHT22;2615;44.524;11.284;2023-05-14T03:25:46;15.30;87.10
5192;DHT22;2615;44.524;11.284;2023-05-14T03:28:14;15.20;87.00
5192;DHT22;2615;44.524;11.284;2023-05-14T03:30:42;15.20;87.00
5192;DHT22;2615;44.524;11.284;2023-05-14T03:33:11;15.20;87.10
5192;DHT22;2615;44.524;11.284;2023-05-14T03:35:39;15.20;87.10
5192;DHT22;2615;44.524;11.284;2023-05-14T03:38:09;15.10;87.00
5192;DHT22;2615;44.524;11.284;2023-05-14T03:40:37;15.10;87.20
5192;DHT22;2615;44.524;11.284;2023-05-14T03:43:05;15.10;87.30
5192;DHT22;2615;44.524;11.284;2023-05-14T03:45:33;15.10;87.30
5192;DHT22;2615;44.524;11.284;2023-05-14T03:48:01;15.10;87.30
5192;DHT22;2615;44.524;11.284;2023-05-14T03:50:30;15.10;87.30
5192;DHT22;2615;44.524;11.284;2023-05-14T03:52:58;15.10;87.30
5192;DHT22;2615;44.524;11.284;2023-05-14T03:55:27;15.10;87.40
5192;DHT22;2615;44.524;11.284;2023-05-14T03:57:55;15.10;87.50
5192;DHT22;2615;44.524;11.284;2023-05-14T04:00:24;15.10;87.40
5192;DHT22;2615;44.524;11.284;2023-05-14T04:02:52;15.00;87.50
5192;DHT22;2615;44.524;11.284;2023-05-14T04:05:20;15.00;87.50
5192;DHT22;2615;44.524;11.284;2023-05-14T04:07:48;15.00;87.50
5192;DHT22;2615;44.524;11.284;2023-05-14T04:10:18;15.00;87.40
5192;DHT22;2615;44.524;11.284;2023-05-14T04:12:47;15.00;87.50
5192;DHT22;2615;44.524;11.284;2023-05-14T04:15:15;15.00;87.50
5192;DHT22;2615;44.524;11.284;2023-05-14T04:17:43;15.00;87.50
5192;DHT22;2615;44.524;11.284;2023-05-14T04:20:12;15.00;87.60
5192;DHT22;2615;44.524;11.284;2023-05-14T04:22:40;15.00;87.50
5192;DHT22;2615;44.524;11.284;2023-05-14T04:25:08;15.00;87.60
5192;DHT22;2615;44.524;11.284;2023-05-14T04:27:36;15.00;87.50
5192;DHT22;2615;44.524;11.284;2023-05-14T04:30:07;15.10;87.60
5192;DHT22;2615;44.524;11.284;2023-05-14T04:32:35;15.10;87.60
5192;DHT22;2615;44.524;11.284;2023-05-14T04:35:05;15.00;87.40
5192;DHT22;2615;44.524;11.284;2023-05-14T04:37:35;15.00;87.40
5192;DHT22;2615;44.524;11.284;2023-05-14T04:40:03;15.00;87.50
5192;DHT22;2615;44.524;11.284;2023-05-14T04:42:32;15.00;87.50
5192;DHT22;2615;44.524;11.284;2023-05-14T04:45:00;14.90;87.50
5192;DHT22;2615;44.524;11.284;2023-05-14T04:47:32;14.90;87.60
5192;DHT22;2615;44.524;11.284;2023-05-14T04:50:00;14.90;87.70
5192;DHT22;2615;44.524;11.284;2023-05-14T04:52:28;14.90;87.80
5192;DHT22;2615;44.524;11.284;2023-05-14T04:54:56;14.90;88.00
5192;DHT22;2615;44.524;11.284;2023-05-14T04:57:25;14.90;87.80
5192;DHT22;2615;44.524;11.284;2023-05-14T04:59:53;14.90;87.80
5192;DHT22;2615;44.524;11.284;2023-05-14T05:02:21;14.90;87.90
5192;DHT22;2615;44.524;11.284;2023-05-14T05:04:50;14.90;87.90
5192;DHT22;2615;44.524;11.284;2023-05-14T05:07:19;14.90;87.90
5192;DHT22;2615;44.524;11.284;2023-05-14T05:09:47;14.90;87.90
5192;DHT22;2615;44.524;11.284;2023-05-14T05:12:15;14.90;87.90
5192;DHT22;2615;44.524;11.284;2023-05-14T05:14:43;14.90;87.90
5192;DHT22;2615;44.524;11.284;2023-05-14T05:17:11;14.90;87.90
5192;DHT22;2615;44.524;11.284;2023-05-14T05:19:39;14.90;87.90
5192;DHT22;2615;44.524;11.284;2023-05-14T05:22:11;14.90;88.00
5192;DHT22;2615;44.524;11.284;2023-05-14T05:24:39;14.90;88.00
5192;DHT22;2615;44.524;11.284;2023-05-14T05:27:08;14.90;87.90
5192;DHT22;2615;44.524;11.284;2023-05-14T05:29:36;14.90;88.00
5192;DHT22;2615;44.524;11.284;2023-05-14T05:32:05;14.90;88.00
5192;DHT22;2615;44.524;11.284;2023-05-14T05:34:33;14.90;88.00
5192;DHT22;2615;44.524;11.284;2023-05-14T05:37:02;14.90;88.10
5192;DHT22;2615;44.524;11.284;2023-05-14T05:39:33;15.00;88.20
5192;DHT22;2615;44.524;11.284;2023-05-14T05:42:01;15.00;88.20
5192;DHT22;2615;44.524;11.284;2023-05-14T05:44:29;15.00;88.10
5192;DHT22;2615;44.524;11.284;2023-05-14T05:46:57;14.90;87.90
5192;DHT22;2615;44.524;11.284;2023-05-14T05:49:26;14.90;87.90
5192;DHT22;2615;44.524;11.284;2023-05-14T05:51:54;14.90;88.00
5192;DHT22;2615;44.524;11.284;2023-05-14T05:54:22;14.90;88.00
5192;DHT22;2615;44.524;11.284;2023-05-14T05:56:53;14.90;88.00
5192;DHT22;2615;44.524;11.284;2023-05-14T05:59:21;14.90;88.10
5192;DHT22;2615;44.524;11.284;2023-05-14T06:01:49;14.90;88.10
5192;DHT22;2615;44.524;11.284;2023-05-14T06:04:17;14.90;88.00
5192;DHT22;2615;44.524;11.284;2023-05-14T06:06:45;14.90;87.90
5192;DHT22;2615;44.524;11.284;2023-05-14T06:09:14;14.90;88.00
5192;DHT22;2615;44.524;11.284;2023-05-14T06:11:42;14.90;88.00
5192;DHT22;2615;44.524;11.284;2023-05-14T06:14:11;14.90;88.00
5192;DHT22;2615;44.524;11.284;2023-05-14T06:16:39;14.90;88.00
5192;DHT22;2615;44.524;11.284;2023-05-14T06:19:07;14.90;87.90
5192;DHT22;2615;44.524;11.284;2023-05-14T06:21:37;14.90;88.00
5192;DHT22;2615;44.524;11.284;2023-05-14T06:24:05;14.90;88.00
5192;DHT22;2615;44.524;11.284;2023-05-14T06:26:33;15.00;88.20
5192;DHT22;2615;44.524;11.284;2023-05-14T06:29:01;15.00;88.20
5192;DHT22;2615;44.524;11.284;2023-05-14T06:31:31;15.00;88.00
5192;DHT22;2615;44.524;11.284;2023-05-14T06:33:59;15.10;88.10
5192;DHT22;2615;44.524;11.284;2023-05-14T06:36:27;15.10;88.10
5192;DHT22;2615;44.524;11.284;2023-05-14T06:38:55;15.10;88.10
5192;DHT22;2615;44.524;11.284;2023-05-14T06:41:23;15.20;88.30
5192;DHT22;2615;44.524;11.284;2023-05-14T06:43:51;15.30;88.40
5192;DHT22;2615;44.524;11.284;2023-05-14T06:46:21;15.30;88.20
5192;DHT22;2615;44.524;11.284;2023-05-14T06:48:50;15.40;88.20
5192;DHT22;2615;44.524;11.284;2023-05-14T06:51:18;15.40;88.10
5192;DHT22;2615;44.524;11.284;2023-05-14T06:53:46;15.50;88.10
5192;DHT22;2615;44.524;11.284;2023-05-14T06:56:15;15.50;88.10
5192;DHT22;2615;44.524;11.284;2023-05-14T06:58:43;15.50;88.00
5192;DHT22;2615;44.524;11.284;2023-05-14T07:01:11;15.50;87.90
5192;DHT22;2615;44.524;11.284;2023-05-14T07:03:39;15.50;87.90
5192;DHT22;2615;44.524;11.284;2023-05-14T07:06:09;15.50;87.80
5192;DHT22;2615;44.524;11.284;2023-05-14T07:08:39;15.50;87.90
5192;DHT22;2615;44.524;11.284;2023-05-14T07:11:07;15.50;88.00
5192;DHT22;2615;44.524;11.284;2023-05-14T07:13:35;15.50;88.00
5192;DHT22;2615;44.524;11.284;2023-05-14T07:16:04;15.60;88.10
5192;DHT22;2615;44.524;11.284;2023-05-14T07:18:32;15.60;88.10
5192;DHT22;2615;44.524;11.284;2023-05-14T07:21:01;15.60;88.00
5192;DHT22;2615;44.524;11.284;2023-05-14T07:23:32;15.70;88.00
5192;DHT22;2615;44.524;11.284;2023-05-14T07:26:02;15.70;87.90
5192;DHT22;2615;44.524;11.284;2023-05-14T07:28:30;15.70;87.80
5192;DHT22;2615;44.524;11.284;2023-05-14T07:30:58;15.70;87.70
5192;DHT22;2615;44.524;11.284;2023-05-14T07:33:27;15.70;87.60
5192;DHT22;2615;44.524;11.284;2023-05-14T07:35:55;15.60;87.50
5192;DHT22;2615;44.524;11.284;2023-05-14T07:38:23;15.60;87.50
5192;DHT22;2615;44.524;11.284;2023-05-14T07:40:52;15.60;87.50
5192;DHT22;2615;44.524;11.284;2023-05-14T07:43:20;15.60;87.60
5192;DHT22;2615;44.524;11.284;2023-05-14T07:45:48;15.60;87.60
5192;DHT22;2615;44.524;11.284;2023-05-14T07:48:17;15.60;87.60
5192;DHT22;2615;44.524;11.284;2023-05-14T07:50:46;15.60;87.60
5192;DHT22;2615;44.524;11.284;2023-05-14T07:53:15;15.70;87.80
5192;DHT22;2615;44.524;11.284;2023-05-14T07:55:43;15.70;87.80
5192;DHT22;2615;44.524;11.284;2023-05-14T07:58:15;15.70;87.70
5192;DHT22;2615;44.524;11.284;2023-05-14T08:00:43;15.80;87.80
5192;DHT22;2615;44.524;11.284;2023-05-14T08:03:11;15.90;87.90
5192;DHT22;2615;44.524;11.284;2023-05-14T08:05:39;15.90;87.90
5192;DHT22;2615;44.524;11.284;2023-05-14T08:08:07;16.00;87.90
5192;DHT22;2615;44.524;11.284;2023-05-14T08:10:35;16.00;87.80
5192;DHT22;2615;44.524;11.284;2023-05-14T08:13:03;16.10;87.70
5192;DHT22;2615;44.524;11.284;2023-05-14T08:15:33;16.10;87.60
5192;DHT22;2615;44.524;11.284;2023-05-14T08:18:01;16.10;88.20
5192;DHT22;2615;44.524;11.284;2023-05-14T08:20:30;16.10;87.50
5192;DHT22;2615;44.524;11.284;2023-05-14T08:22:58;16.10;87.60
5192;DHT22;2615;44.524;11.284;2023-05-14T08:25:26;16.10;87.60
5192;DHT22;2615;44.524;11.284;2023-05-14T08:27:54;16.10;87.60
5192;DHT22;2615;44.524;11.284;2023-05-14T08:30:22;16.20;87.60
5192;DHT22;2615;44.524;11.284;2023-05-14T08:32:52;16.20;87.40
5192;DHT22;2615;44.524;11.284;2023-05-14T08:35:21;16.30;87.30
5192;DHT22;2615;44.524;11.284;2023-05-14T08:37:49;16.30;87.10
5192;DHT22;2615;44.524;11.284;2023-05-14T08:40:18;16.40;87.20
5192;DHT22;2615;44.524;11.284;2023-05-14T08:42:46;16.40;87.10
5192;DHT22;2615;44.524;11.284;2023-05-14T08:45:17;16.50;87.20
5192;DHT22;2615;44.524;11.284;2023-05-14T08:47:47;16.60;87.30
5192;DHT22;2615;44.524;11.284;2023-05-14T08:50:18;16.70;87.20
5192;DHT22;2615;44.524;11.284;2023-05-14T08:52:49;16.80;87.10
5192;DHT22;2615;44.524;11.284;2023-05-14T08:55:18;16.90;86.90
5192;DHT22;2615;44.524;11.284;2023-05-14T08:57:46;16.90;86.80
5192;DHT22;2615;44.524;11.284;2023-05-14T09:00:14;17.00;86.70
5192;DHT22;2615;44.524;11.284;2023-05-14T09:02:45;17.20;86.70
5192;DHT22;2615;44.524;11.284;2023-05-14T09:05:17;17.30;86.50
5192;DHT22;2615;44.524;11.284;2023-05-14T09:07:46;17.50;86.40
5192;DHT22;2615;44.524;11.284;2023-05-14T09:10:14;17.70;86.00
5192;DHT22;2615;44.524;11.284;2023-05-14T09:12:43;17.80;85.50
5192;DHT22;2615;44.524;11.284;2023-05-14T09:15:11;17.90;85.00
5192;DHT22;2615;44.524;11.284;2023-05-14T09:17:39;17.90;84.70
5192;DHT22;2615;44.524;11.284;2023-05-14T09:20:09;17.90;84.60
5192;DHT22;2615;44.524;11.284;2023-05-14T09:22:40;17.80;84.30
5192;DHT22;2615;44.524;11.284;2023-05-14T09:25:09;17.70;84.10
5192;DHT22;2615;44.524;11.284;2023-05-14T09:27:38;17.50;83.90
5192;DHT22;2615;44.524;11.284;2023-05-14T09:30:08;17.30;84.00
5192;DHT22;2615;44.524;11.284;2023-05-14T09:32:38;17.20;84.10
5192;DHT22;2615;44.524;11.284;2023-05-14T09:35:15;17.10;84.20
5192;DHT22;2615;44.524;11.284;2023-05-14T09:37:47;17.10;84.30
5192;DHT22;2615;44.524;11.284;2023-05-14T09:40:17;17.00;84.20
5192;DHT22;2615;44.524;11.284;2023-05-14T09:42:46;16.90;84.10
5192;DHT22;2615;44.524;11.284;2023-05-14T09:45:15;16.80;84.00
5192;DHT22;2615;44.524;11.284;2023-05-14T09:47:43;16.70;84.20
5192;DHT22;2615;44.524;11.284;2023-05-14T09:50:12;16.60;84.10
5192;DHT22;2615;44.524;11.284;2023-05-14T09:52:40;16.50;84.10
5192;DHT22;2615;44.524;11.284;2023-05-14T09:55:09;16.40;84.10
5192;DHT22;2615;44.524;11.284;2023-05-14T09:57:38;16.30;84.10
5192;DHT22;2615;44.524;11.284;2023-05-14T10:00:07;16.20;84.20
5192;DHT22;2615;44.524;11.284;2023-05-14T10:02:37;16.10;84.30
5192;DHT22;2615;44.524;11.284;2023-05-14T10:05:07;16.10;84.50
5192;DHT22;2615;44.524;11.284;2023-05-14T10:07:39;16.10;84.50
5192;DHT22;2615;44.524;11.284;2023-05-14T10:10:14;16.00;84.60
5192;DHT22;2615;44.524;11.284;2023-05-14T10:12:47;16.00;84.70
5192;DHT22;2615;44.524;11.284;2023-05-14T10:15:20;16.00;84.80
5192;DHT22;2615;44.524;11.284;2023-05-14T10:17:55;16.00;84.90
5192;DHT22;2615;44.524;11.284;2023-05-14T10:20:24;15.90;84.80
5192;DHT22;2615;44.524;11.284;2023-05-14T10:22:53;15.90;84.80
5192;DHT22;2615;44.524;11.284;2023-05-14T10:25:23;15.90;85.00
5192;DHT22;2615;44.524;11.284;2023-05-14T10:27:52;15.90;84.90
5192;DHT22;2615;44.524;11.284;2023-05-14T10:30:21;15.80;84.80
5192;DHT22;2615;44.524;11.284;2023-05-14T10:33:07;15.80;84.80
5192;DHT22;2615;44.524;11.284;2023-05-14T10:35:56;15.80;85.00
5192;DHT22;2615;44.524;11.284;2023-05-14T10:38:28;15.80;85.00
5192;DHT22;2615;44.524;11.284;2023-05-14T10:41:02;15.80;85.10
5192;DHT22;2615;44.524;11.284;2023-05-14T10:43:35;15.80;85.00
5192;DHT22;2615;44.524;11.284;2023-05-14T10:46:05;15.80;85.00
5192;DHT22;2615;44.524;11.284;2023-05-14T10:48:33;15.80;85.00
5192;DHT22;2615;44.524;11.284;2023-05-14T10:51:02;15.80;85.00
5192;DHT22;2615;44.524;11.284;2023-05-14T10:53:32;15.80;84.90
5192;DHT22;2615;44.524;11.284;2023-05-14T10:56:06;15.80;84.90
5192;DHT22;2615;44.524;11.284;2023-05-14T10:58:36;15.80;84.90
5192;DHT22;2615;44.524;11.284;2023-05-14T11:01:06;15.80;84.90
5192;DHT22;2615;44.524;11.284;2023-05-14T11:03:39;15.80;84.80
5192;DHT22;2615;44.524;11.284;2023-05-14T11:06:09;15.90;84.90
5192;DHT22;2615;44.524;11.284;2023-05-14T11:08:39;15.90;84.90
5192;DHT22;2615;44.524;11.284;2023-05-14T11:11:09;15.90;84.90
5192;DHT22;2615;44.524;11.284;2023-05-14T11:13:37;16.00;85.00
5192;DHT22;2615;44.524;11.284;2023-05-14T11:16:05;16.00;84.90
5192;DHT22;2615;44.524;11.284;2023-05-14T11:18:52;16.00;84.90
5192;DHT22;2615;44.524;11.284;2023-05-14T11:21:21;16.10;84.80
5192;DHT22;2615;44.524;11.284;2023-05-14T11:23:49;16.10;84.60
5192;DHT22;2615;44.524;11.284;2023-05-14T11:26:19;16.10;84.60
5192;DHT22;2615;44.524;11.284;2023-05-14T11:28:48;16.10;84.70
5192;DHT22;2615;44.524;11.284;2023-05-14T11:31:16;16.20;84.70
5192;DHT22;2615;44.524;11.284;2023-05-14T11:33:45;16.20;84.60
5192;DHT22;2615;44.524;11.284;2023-05-14T11:36:13;16.20;84.60
5192;DHT22;2615;44.524;11.284;2023-05-14T11:38:47;16.30;84.50
5192;DHT22;2615;44.524;11.284;2023-05-14T11:41:18;16.20;84.30
5192;DHT22;2615;44.524;11.284;2023-05-14T11:43:49;16.20;84.40
5192;DHT22;2615;44.524;11.284;2023-05-14T11:46:17;16.20;84.30
5192;DHT22;2615;44.524;11.284;2023-05-14T11:48:46;16.20;84.20
5192;DHT22;2615;44.524;11.284;2023-05-14T11:51:14;16.20;84.20
5192;DHT22;2615;44.524;11.284;2023-05-14T11:53:44;16.20;84.20
5192;DHT22;2615;44.524;11.284;2023-05-14T11:56:13;16.10;84.00
5192;DHT22;2615;44.524;11.284;2023-05-14T11:58:47;16.10;84.00
5192;DHT22;2615;44.524;11.284;2023-05-14T12:01:16;16.10;84.00
5192;DHT22;2615;44.524;11.284;2023-05-14T12:03:44;16.10;84.10
5192;DHT22;2615;44.524;11.284;2023-05-14T12:06:13;16.00;84.00
5192;DHT22;2615;44.524;11.284;2023-05-14T12:08:41;16.00;84.00
5192;DHT22;2615;44.524;11.284;2023-05-14T12:11:09;16.00;84.10
5192;DHT22;2615;44.524;11.284;2023-05-14T12:13:38;16.10;84.30
5192;DHT22;2615;44.524;11.284;2023-05-14T12:16:08;16.10;84.30
5192;DHT22;2615;44.524;11.284;2023-05-14T12:18:36;16.10;84.30
5192;DHT22;2615;44.524;11.284;2023-05-14T12:21:05;16.10;84.30
5192;DHT22;2615;44.524;11.284;2023-05-14T12:23:34;16.20;84.40
5192;DHT22;2615;44.524;11.284;2023-05-14T12:26:06;16.20;84.20
5192;DHT22;2615;44.524;11.284;2023-05-14T12:28:37;16.20;84.30
5192;DHT22;2615;44.524;11.284;2023-05-14T12:31:10;16.20;84.20
5192;DHT22;2615;44.524;11.284;2023-05-14T12:33:38;16.30;84.10
5192;DHT22;2615;44.524;11.284;2023-05-14T12:36:06;16.30;83.90
5192;DHT22;2615;44.524;11.284;2023-05-14T12:38:47;16.30;83.90
5192;DHT22;2615;44.524;11.284;2023-05-14T12:41:16;16.30;83.80
5192;DHT22;2615;44.524;11.284;2023-05-14T12:43:46;16.30;83.60
5192;DHT22;2615;44.524;11.284;2023-05-14T12:46:16;16.30;83.50
5192;DHT22;2615;44.524;11.284;2023-05-14T12:48:45;16.30;83.50
5192;DHT22;2615;44.524;11.284;2023-05-14T12:51:13;16.30;83.40
5192;DHT22;2615;44.524;11.284;2023-05-14T12:53:41;16.30;83.30
5192;DHT22;2615;44.524;11.284;2023-05-14T12:56:11;16.30;83.20
5192;DHT22;2615;44.524;11.284;2023-05-14T12:58:39;16.30;83.30
5192;DHT22;2615;44.524;11.284;2023-05-14T13:01:07;16.30;83.20
5192;DHT22;2615;44.524;11.284;2023-05-14T13:03:37;16.40;83.20
5192;DHT22;2615;44.524;11.284;2023-05-14T13:06:06;16.40;83.10
5192;DHT22;2615;44.524;11.284;2023-05-14T13:08:34;16.40;83.00
5192;DHT22;2615;44.524;11.284;2023-05-14T13:11:02;16.40;83.00
5192;DHT22;2615;44.524;11.284;2023-05-14T13:13:31;16.40;82.90
5192;DHT22;2615;44.524;11.284;2023-05-14T13:15:59;16.50;83.00
5192;DHT22;2615;44.524;11.284;2023-05-14T13:18:27;16.50;83.00
5192;DHT22;2615;44.524;11.284;2023-05-14T13:20:56;16.50;83.00
5192;DHT22;2615;44.524;11.284;2023-05-14T13:23:24;16.70;83.20
5192;DHT22;2615;44.524;11.284;2023-05-14T13:25:52;16.70;83.10
5192;DHT22;2615;44.524;11.284;2023-05-14T13:28:20;16.80;83.20
5192;DHT22;2615;44.524;11.284;2023-05-14T13:31:03;16.90;83.30
5192;DHT22;2615;44.524;11.284;2023-05-14T13:33:34;17.00;83.20
5192;DHT22;2615;44.524;11.284;2023-05-14T13:36:04;17.00;82.90
5192;DHT22;2615;44.524;11.284;2023-05-14T13:38:32;17.10;82.90
5192;DHT22;2615;44.524;11.284;2023-05-14T13:41:01;17.10;82.80
5192;DHT22;2615;44.524;11.284;2023-05-14T13:43:29;17.20;82.70
5192;DHT22;2615;44.524;11.284;2023-05-14T13:45:58;17.30;82.50
5192;DHT22;2615;44.524;11.284;2023-05-14T13:48:26;17.40;82.30
5192;DHT22;2615;44.524;11.284;2023-05-14T13:50:55;17.50;82.30
5192;DHT22;2615;44.524;11.284;2023-05-14T13:53:25;17.60;82.20
5192;DHT22;2615;44.524;11.284;2023-05-14T13:55:53;17.80;82.10
5192;DHT22;2615;44.524;11.284;2023-05-14T13:58:24;17.90;81.90
5192;DHT22;2615;44.524;11.284;2023-05-14T14:00:53;18.00;81.80
5192;DHT22;2615;44.524;11.284;2023-05-14T14:03:22;18.10;81.60
5192;DHT22;2615;44.524;11.284;2023-05-14T14:05:50;18.20;81.30
5192;DHT22;2615;44.524;11.284;2023-05-14T14:08:19;18.20;80.90
5192;DHT22;2615;44.524;11.284;2023-05-14T14:10:51;18.30;80.70
5192;DHT22;2615;44.524;11.284;2023-05-14T14:13:21;18.30;80.40
5192;DHT22;2615;44.524;11.284;2023-05-14T14:15:50;18.30;80.20
5192;DHT22;2615;44.524;11.284;2023-05-14T14:18:18;18.30;80.10
5192;DHT22;2615;44.524;11.284;2023-05-14T14:20:46;18.30;79.80
5192;DHT22;2615;44.524;11.284;2023-05-14T14:23:15;18.30;79.60
5192;DHT22;2615;44.524;11.284;2023-05-14T14:25:43;18.30;79.50
5192;DHT22;2615;44.524;11.284;2023-05-14T14:28:12;18.40;79.40
5192;DHT22;2615;44.524;11.284;2023-05-14T14:30:40;18.40;79.20
5192;DHT22;2615;44.524;11.284;2023-05-14T14:33:09;18.40;79.10
5192;DHT22;2615;44.524;11.284;2023-05-14T14:35:38;18.40;79.00
5192;DHT22;2615;44.524;11.284;2023-05-14T14:38:06;18.40;78.90
5192;DHT22;2615;44.524;11.284;2023-05-14T14:40:34;18.40;78.90
5192;DHT22;2615;44.524;11.284;2023-05-14T14:43:02;18.40;78.90
5192;DHT22;2615;44.524;11.284;2023-05-14T14:45:31;18.30;78.60
5192;DHT22;2615;44.524;11.284;2023-05-14T14:48:22;18.30;78.60
5192;DHT22;2615;44.524;11.284;2023-05-14T14:50:51;18.30;78.50
5192;DHT22;2615;44.524;11.284;2023-05-14T14:53:19;18.20;78.50
5192;DHT22;2615;44.524;11.284;2023-05-14T14:55:47;18.20;78.50
5192;DHT22;2615;44.524;11.284;2023-05-14T14:58:17;18.20;78.30
5192;DHT22;2615;44.524;11.284;2023-05-14T15:00:47;18.20;78.20
5192;DHT22;2615;44.524;11.284;2023-05-14T15:03:16;18.20;78.20
5192;DHT22;2615;44.524;11.284;2023-05-14T15:05:45;18.20;78.20
5192;DHT22;2615;44.524;11.284;2023-05-14T15:08:13;18.20;78.30
5192;DHT22;2615;44.524;11.284;2023-05-14T15:10:41;18.10;78.30
5192;DHT22;2615;44.524;11.284;2023-05-14T15:13:09;18.10;78.30
5192;DHT22;2615;44.524;11.284;2023-05-14T15:15:38;18.10;78.40
5192;DHT22;2615;44.524;11.284;2023-05-14T15:18:08;18.10;78.40
5192;DHT22;2615;44.524;11.284;2023-05-14T15:20:36;18.10;78.30
5192;DHT22;2615;44.524;11.284;2023-05-14T15:23:05;18.00;78.10
5192;DHT22;2615;44.524;11.284;2023-05-14T15:25:33;18.00;78.10
5192;DHT22;2615;44.524;11.284;2023-05-14T15:28:01;18.00;78.20
5192;DHT22;2615;44.524;11.284;2023-05-14T15:30:29;17.90;78.10
5192;DHT22;2615;44.524;11.284;2023-05-14T15:32:57;17.90;78.30
5192;DHT22;2615;44.524;11.284;2023-05-14T15:35:27;17.80;78.50
5192;DHT22;2615;44.524;11.284;2023-05-14T15:37:55;17.80;78.50
5192;DHT22;2615;44.524;11.284;2023-05-14T15:40:25;17.80;78.50
5192;DHT22;2615;44.524;11.284;2023-05-14T15:42:53;17.80;78.60
5192;DHT22;2615;44.524;11.284;2023-05-14T15:45:21;17.80;78.80
5192;DHT22;2615;44.524;11.284;2023-05-14T15:47:49;17.80;78.80
5192;DHT22;2615;44.524;11.284;2023-05-14T15:50:18;17.80;78.90
5192;DHT22;2615;44.524;11.284;2023-05-14T15:52:48;17.80;78.90
5192;DHT22;2615;44.524;11.284;2023-05-14T15:55:16;17.80;78.90
5192;DHT22;2615;44.524;11.284;2023-05-14T15:57:44;17.80;78.90